sensor_id;sensor_type;location;lat;lon;timestamp;P1;durP1;ratioP1;P2;durP2;ratioP2
12332;SDS011;6232;48.094;11.288;2023-02-15T00:02:04;23.03;;;10.03;;
12332;SDS011;6232;48.094;11.288;2023-02-15T00:04:49;42.53;;;11.53;;
12332;SDS011;6232;48.094;11.288;2023-02-15T00:07:35;16.90;;;9.57;;
12332;SDS011;6232;48.094;11.288;2023-02-15T00:10:21;42.10;;;12.07;;
12332;SDS011;6232;48.094;11.288;2023-02-15T00:13:06;18.57;;;11.40;;
12332;SDS011;6232;48.094;11.288;2023-02-15T00:15:52;28.23;;;10.53;;
12332;SDS011;6232;48.094;11.288;2023-02-15T00:18:39;34.47;;;12.83;;
12332;SDS011;6232;48.094;11.288;2023-02-15T00:21:25;23.33;;;11.63;;
12332;SDS011;6232;48.094;11.288;2023-02-15T00:24:11;37.47;;;11.43;;
12332;SDS011;6232;48.094;11.288;2023-02-15T00:26:56;41.20;;;12.07;;
12332;SDS011;6232;48.094;11.288;2023-02-15T00:29:42;49.07;;;12.20;;
12332;SDS011;6232;48.094;11.288;2023-02-15T00:32:28;15.77;;;11.50;;
12332;SDS011;6232;48.094;11.288;2023-02-15T00:35:13;39.67;;;12.97;;
12332;SDS011;6232;48.094;11.288;2023-02-15T00:38:01;67.80;;;12.83;;
12332;SDS011;6232;48.094;11.288;2023-02-15T00:40:51;29.73;;;10.90;;
12332;SDS011;6232;48.094;11.288;2023-02-15T00:43:37;19.77;;;9.77;;
12332;SDS011;6232;48.094;11.288;2023-02-15T00:46:23;34.23;;;11.43;;
12332;SDS011;6232;48.094;11.288;2023-02-15T00:49:09;37.77;;;10.57;;
12332;SDS011;6232;48.094;11.288;2023-02-15T00:51:54;19.97;;;10.57;;
12332;SDS011;6232;48.094;11.288;2023-02-15T00:54:40;26.37;;;9.93;;
12332;SDS011;6232;48.094;11.288;2023-02-15T00:57:29;25.00;;;11.33;;
12332;SDS011;6232;48.094;11.288;2023-02-15T01:00:14;30.20;;;12.13;;
12332;SDS011;6232;48.094;11.288;2023-02-15T01:03:00;29.00;;;10.23;;
12332;SDS011;6232;48.094;11.288;2023-02-15T01:05:46;16.90;;;12.13;;
12332;SDS011;6232;48.094;11.288;2023-02-15T01:08:33;43.10;;;11.60;;
12332;SDS011;6232;48.094;11.288;2023-02-15T01:11:19;31.33;;;11.47;;
12332;SDS011;6232;48.094;11.288;2023-02-15T01:14:07;21.43;;;11.30;;
12332;SDS011;6232;48.094;11.288;2023-02-15T01:16:52;34.57;;;11.40;;
12332;SDS011;6232;48.094;11.288;2023-02-15T01:19:38;26.57;;;11.40;;
12332;SDS011;6232;48.094;11.288;2023-02-15T01:22:23;70.33;;;10.70;;
12332;SDS011;6232;48.094;11.288;2023-02-15T01:25:09;19.87;;;11.30;;
12332;SDS011;6232;48.094;11.288;2023-02-15T01:27:55;39.17;;;11.50;;
12332;SDS011;6232;48.094;11.288;2023-02-15T01:30:40;18.30;;;10.73;;
12332;SDS011;6232;48.094;11.288;2023-02-15T01:33:26;20.83;;;10.83;;
12332;SDS011;6232;48.094;11.288;2023-02-15T01:36:12;42.43;;;11.33;;
12332;SDS011;6232;48.094;11.288;2023-02-15T01:38:57;44.53;;;10.90;;
12332;SDS011;6232;48.094;11.288;2023-02-15T01:41:43;47.43;;;11.67;;
12332;SDS011;6232;48.094;11.288;2023-02-15T01:53:14;51.23;;;10.77;;
12332;SDS011;6232;48.094;11.288;2023-02-15T01:58:46;17.27;;;10.73;;
12332;SDS011;6232;48.094;11.288;2023-02-15T02:01:32;41.43;;;9.90;;
12332;SDS011;6232;48.094;11.288;2023-02-15T02:07:42;41.37;;;12.17;;
12332;SDS011;6232;48.094;11.288;2023-02-15T02:10:29;25.50;;;10.93;;
12332;SDS011;6232;48.094;11.288;2023-02-15T02:13:14;100.17;;;11.90;;
12332;SDS011;6232;48.094;11.288;2023-02-15T02:16:04;54.87;;;10.67;;
12332;SDS011;6232;48.094;11.288;2023-02-15T02:18:57;36.23;;;11.70;;
12332;SDS011;6232;48.094;11.288;2023-02-15T02:21:53;35.13;;;11.87;;
12332;SDS011;6232;48.094;11.288;2023-02-15T02:42:40;44.60;;;11.50;;
12332;SDS011;6232;48.094;11.288;2023-02-15T02:45:28;32.40;;;10.40;;
12332;SDS011;6232;48.094;11.288;2023-02-15T02:48:17;21.90;;;10.27;;
12332;SDS011;6232;48.094;11.288;2023-02-15T02:51:04;34.43;;;11.43;;
12332;SDS011;6232;48.094;11.288;2023-02-15T02:53:54;18.23;;;9.97;;
12332;SDS011;6232;48.094;11.288;2023-02-15T02:56:46;26.13;;;10.90;;
12332;SDS011;6232;48.094;11.288;2023-02-15T02:59:33;34.67;;;10.77;;
12332;SDS011;6232;48.094;11.288;2023-02-15T03:02:21;30.33;;;10.10;;
12332;SDS011;6232;48.094;11.288;2023-02-15T03:05:09;30.93;;;10.87;;
12332;SDS011;6232;48.094;11.288;2023-02-15T03:07:55;41.00;;;10.97;;
12332;SDS011;6232;48.094;11.288;2023-02-15T03:10:42;32.57;;;11.27;;
12332;SDS011;6232;48.094;11.288;2023-02-15T03:13:27;41.03;;;10.57;;
12332;SDS011;6232;48.094;11.288;2023-02-15T03:16:13;34.17;;;10.40;;
12332;SDS011;6232;48.094;11.288;2023-02-15T03:19:20;34.27;;;9.30;;
12332;SDS011;6232;48.094;11.288;2023-02-15T03:22:12;27.23;;;10.63;;
12332;SDS011;6232;48.094;11.288;2023-02-15T03:25:04;17.50;;;11.20;;
12332;SDS011;6232;48.094;11.288;2023-02-15T03:27:58;19.13;;;10.57;;
12332;SDS011;6232;48.094;11.288;2023-02-15T03:30:45;33.07;;;11.60;;
12332;SDS011;6232;48.094;11.288;2023-02-15T03:33:34;29.13;;;10.50;;
12332;SDS011;6232;48.094;11.288;2023-02-15T03:36:22;33.10;;;10.93;;
12332;SDS011;6232;48.094;11.288;2023-02-15T03:39:52;54.50;;;9.97;;
12332;SDS011;6232;48.094;11.288;2023-02-15T03:42:25;31.47;;;10.33;;
12332;SDS011;6232;48.094;11.288;2023-02-15T03:45:13;33.63;;;10.20;;
12332;SDS011;6232;48.094;11.288;2023-02-15T03:48:02;37.77;;;10.10;;
12332;SDS011;6232;48.094;11.288;2023-02-15T03:50:48;28.43;;;10.13;;
12332;SDS011;6232;48.094;11.288;2023-02-15T03:53:53;31.23;;;11.50;;
12332;SDS011;6232;48.094;11.288;2023-02-15T03:56:40;24.73;;;10.27;;
12332;SDS011;6232;48.094;11.288;2023-02-15T03:59:26;35.37;;;10.07;;
12332;SDS011;6232;48.094;11.288;2023-02-15T04:02:34;28.23;;;11.27;;
12332;SDS011;6232;48.094;11.288;2023-02-15T04:05:23;62.40;;;10.50;;
12332;SDS011;6232;48.094;11.288;2023-02-15T04:08:09;36.33;;;10.63;;
12332;SDS011;6232;48.094;11.288;2023-02-15T04:10:54;20.37;;;10.90;;
12332;SDS011;6232;48.094;11.288;2023-02-15T04:13:41;55.40;;;10.23;;
12332;SDS011;6232;48.094;11.288;2023-02-15T04:16:28;19.83;;;9.93;;
12332;SDS011;6232;48.094;11.288;2023-02-15T04:19:13;21.23;;;10.20;;
12332;SDS011;6232;48.094;11.288;2023-02-15T04:22:18;40.17;;;10.30;;
12332;SDS011;6232;48.094;11.288;2023-02-15T04:25:22;39.37;;;10.30;;
12332;SDS011;6232;48.094;11.288;2023-02-15T04:28:08;24.00;;;9.97;;
12332;SDS011;6232;48.094;11.288;2023-02-15T04:30:53;24.33;;;9.97;;
12332;SDS011;6232;48.094;11.288;2023-02-15T04:33:39;20.77;;;11.37;;
12332;SDS011;6232;48.094;11.288;2023-02-15T04:36:24;22.70;;;10.03;;
12332;SDS011;6232;48.094;11.288;2023-02-15T04:39:12;38.17;;;10.80;;
12332;SDS011;6232;48.094;11.288;2023-02-15T04:41:58;16.60;;;8.73;;
12332;SDS011;6232;48.094;11.288;2023-02-15T04:44:43;36.63;;;9.87;;
12332;SDS011;6232;48.094;11.288;2023-02-15T04:47:32;34.87;;;10.57;;
12332;SDS011;6232;48.094;11.288;2023-02-15T04:50:18;15.83;;;9.23;;
12332;SDS011;6232;48.094;11.288;2023-02-15T04:53:03;21.70;;;10.93;;
12332;SDS011;6232;48.094;11.288;2023-02-15T04:55:49;25.30;;;9.47;;
12332;SDS011;6232;48.094;11.288;2023-02-15T04:58:34;50.40;;;10.10;;
12332;SDS011;6232;48.094;11.288;2023-02-15T05:01:22;23.33;;;10.63;;
12332;SDS011;6232;48.094;11.288;2023-02-15T05:04:07;15.50;;;10.50;;
12332;SDS011;6232;48.094;11.288;2023-02-15T05:06:53;14.13;;;9.80;;
12332;SDS011;6232;48.094;11.288;2023-02-15T05:09:39;16.40;;;10.97;;
12332;SDS011;6232;48.094;11.288;2023-02-15T05:12:24;15.40;;;11.00;;
12332;SDS011;6232;48.094;11.288;2023-02-15T05:15:10;24.63;;;10.33;;
12332;SDS011;6232;48.094;11.288;2023-02-15T05:17:56;14.00;;;10.70;;
12332;SDS011;6232;48.094;11.288;2023-02-15T05:20:42;14.90;;;9.70;;
12332;SDS011;6232;48.094;11.288;2023-02-15T05:23:27;18.40;;;8.40;;
12332;SDS011;6232;48.094;11.288;2023-02-15T05:26:17;24.10;;;8.70;;
12332;SDS011;6232;48.094;11.288;2023-02-15T05:29:22;16.57;;;9.40;;
12332;SDS011;6232;48.094;11.288;2023-02-15T05:32:08;15.73;;;7.77;;
12332;SDS011;6232;48.094;11.288;2023-02-15T05:34:53;14.90;;;8.60;;
12332;SDS011;6232;48.094;11.288;2023-02-15T05:37:39;17.50;;;8.50;;
12332;SDS011;6232;48.094;11.288;2023-02-15T05:40:24;24.70;;;8.60;;
12332;SDS011;6232;48.094;11.288;2023-02-15T05:43:10;14.27;;;7.80;;
12332;SDS011;6232;48.094;11.288;2023-02-15T05:45:56;16.40;;;9.50;;
12332;SDS011;6232;48.094;11.288;2023-02-15T05:48:41;15.20;;;8.60;;
12332;SDS011;6232;48.094;11.288;2023-02-15T05:51:27;15.40;;;9.20;;
12332;SDS011;6232;48.094;11.288;2023-02-15T05:54:12;15.87;;;8.67;;
12332;SDS011;6232;48.094;11.288;2023-02-15T05:56:58;11.70;;;9.10;;
12332;SDS011;6232;48.094;11.288;2023-02-15T05:59:43;18.53;;;10.40;;
12332;SDS011;6232;48.094;11.288;2023-02-15T06:02:29;21.53;;;10.50;;
12332;SDS011;6232;48.094;11.288;2023-02-15T06:05:15;12.00;;;8.90;;
12332;SDS011;6232;48.094;11.288;2023-02-15T06:08:00;16.50;;;10.13;;
12332;SDS011;6232;48.094;11.288;2023-02-15T06:10:46;17.13;;;9.90;;
12332;SDS011;6232;48.094;11.288;2023-02-15T06:13:32;19.50;;;10.97;;
12332;SDS011;6232;48.094;11.288;2023-02-15T06:16:18;16.50;;;9.90;;
12332;SDS011;6232;48.094;11.288;2023-02-15T06:19:03;18.83;;;9.10;;
12332;SDS011;6232;48.094;11.288;2023-02-15T06:21:49;15.50;;;9.73;;
12332;SDS011;6232;48.094;11.288;2023-02-15T06:24:35;14.40;;;7.90;;
12332;SDS011;6232;48.094;11.288;2023-02-15T06:27:20;15.13;;;9.70;;
12332;SDS011;6232;48.094;11.288;2023-02-15T06:30:07;17.80;;;10.87;;
12332;SDS011;6232;48.094;11.288;2023-02-15T06:32:53;12.07;;;9.30;;
12332;SDS011;6232;48.094;11.288;2023-02-15T06:35:38;17.90;;;8.80;;
12332;SDS011;6232;48.094;11.288;2023-02-15T06:38:24;14.50;;;8.77;;
12332;SDS011;6232;48.094;11.288;2023-02-15T06:41:09;13.80;;;9.47;;
12332;SDS011;6232;48.094;11.288;2023-02-15T06:43:55;12.20;;;8.90;;
12332;SDS011;6232;48.094;11.288;2023-02-15T06:46:41;10.13;;;8.13;;
12332;SDS011;6232;48.094;11.288;2023-02-15T06:49:26;13.30;;;8.43;;
12332;SDS011;6232;48.094;11.288;2023-02-15T06:52:12;12.20;;;9.20;;
12332;SDS011;6232;48.094;11.288;2023-02-15T06:54:58;14.30;;;10.57;;
12332;SDS011;6232;48.094;11.288;2023-02-15T06:57:43;12.70;;;9.10;;
12332;SDS011;6232;48.094;11.288;2023-02-15T07:00:29;21.87;;;12.50;;
12332;SDS011;6232;48.094;11.288;2023-02-15T07:03:15;20.10;;;12.03;;
12332;SDS011;6232;48.094;11.288;2023-02-15T07:06:02;16.23;;;10.07;;
12332;SDS011;6232;48.094;11.288;2023-02-15T07:08:48;27.23;;;17.57;;
12332;SDS011;6232;48.094;11.288;2023-02-15T07:11:34;14.87;;;9.83;;
12332;SDS011;6232;48.094;11.288;2023-02-15T07:14:39;12.23;;;9.00;;
12332;SDS011;6232;48.094;11.288;2023-02-15T07:17:28;15.70;;;9.70;;
12332;SDS011;6232;48.094;11.288;2023-02-15T07:20:21;14.80;;;9.00;;
12332;SDS011;6232;48.094;11.288;2023-02-15T07:23:07;13.33;;;9.23;;
12332;SDS011;6232;48.094;11.288;2023-02-15T07:25:57;16.63;;;9.87;;
12332;SDS011;6232;48.094;11.288;2023-02-15T07:28:42;14.13;;;10.10;;
12332;SDS011;6232;48.094;11.288;2023-02-15T07:31:28;18.10;;;10.37;;
12332;SDS011;6232;48.094;11.288;2023-02-15T07:34:13;23.50;;;11.03;;
12332;SDS011;6232;48.094;11.288;2023-02-15T07:36:59;18.97;;;10.77;;
12332;SDS011;6232;48.094;11.288;2023-02-15T07:39:44;18.27;;;9.83;;
12332;SDS011;6232;48.094;11.288;2023-02-15T07:42:30;15.47;;;11.23;;
12332;SDS011;6232;48.094;11.288;2023-02-15T07:45:16;17.20;;;11.00;;
12332;SDS011;6232;48.094;11.288;2023-02-15T07:48:02;19.20;;;10.30;;
12332;SDS011;6232;48.094;11.288;2023-02-15T07:50:47;15.07;;;10.47;;
12332;SDS011;6232;48.094;11.288;2023-02-15T07:53:33;21.10;;;11.33;;
12332;SDS011;6232;48.094;11.288;2023-02-15T07:56:18;15.90;;;10.60;;
12332;SDS011;6232;48.094;11.288;2023-02-15T07:59:04;23.73;;;12.10;;
12332;SDS011;6232;48.094;11.288;2023-02-15T08:01:50;31.57;;;15.97;;
12332;SDS011;6232;48.094;11.288;2023-02-15T08:04:38;28.53;;;12.60;;
12332;SDS011;6232;48.094;11.288;2023-02-15T08:07:24;18.70;;;12.40;;
12332;SDS011;6232;48.094;11.288;2023-02-15T08:10:12;17.90;;;11.93;;
12332;SDS011;6232;48.094;11.288;2023-02-15T08:13:18;19.40;;;10.60;;
12332;SDS011;6232;48.094;11.288;2023-02-15T08:16:06;17.93;;;11.23;;
12332;SDS011;6232;48.094;11.288;2023-02-15T08:18:52;20.90;;;12.50;;
12332;SDS011;6232;48.094;11.288;2023-02-15T08:21:39;19.47;;;12.53;;
12332;SDS011;6232;48.094;11.288;2023-02-15T08:24:29;21.00;;;10.83;;
12332;SDS011;6232;48.094;11.288;2023-02-15T08:27:14;19.60;;;12.67;;
12332;SDS011;6232;48.094;11.288;2023-02-15T08:30:00;19.00;;;9.53;;
12332;SDS011;6232;48.094;11.288;2023-02-15T08:32:45;18.60;;;11.50;;
12332;SDS011;6232;48.094;11.288;2023-02-15T08:35:31;20.40;;;12.30;;
12332;SDS011;6232;48.094;11.288;2023-02-15T08:38:17;28.17;;;16.73;;
12332;SDS011;6232;48.094;11.288;2023-02-15T08:41:09;23.67;;;12.37;;
12332;SDS011;6232;48.094;11.288;2023-02-15T08:43:56;20.73;;;12.83;;
12332;SDS011;6232;48.094;11.288;2023-02-15T08:46:43;29.00;;;13.90;;
12332;SDS011;6232;48.094;11.288;2023-02-15T08:49:29;29.40;;;13.93;;
12332;SDS011;6232;48.094;11.288;2023-02-15T08:52:14;20.73;;;13.33;;
12332;SDS011;6232;48.094;11.288;2023-02-15T08:55:00;22.17;;;12.20;;
12332;SDS011;6232;48.094;11.288;2023-02-15T08:57:45;20.90;;;12.50;;
12332;SDS011;6232;48.094;11.288;2023-02-15T09:00:31;20.03;;;12.37;;
12332;SDS011;6232;48.094;11.288;2023-02-15T09:03:16;19.83;;;13.03;;
12332;SDS011;6232;48.094;11.288;2023-02-15T09:06:02;16.30;;;11.17;;
12332;SDS011;6232;48.094;11.288;2023-02-15T09:08:48;22.73;;;13.00;;
12332;SDS011;6232;48.094;11.288;2023-02-15T09:11:38;20.53;;;13.60;;
12332;SDS011;6232;48.094;11.288;2023-02-15T09:14:24;21.50;;;11.50;;
12332;SDS011;6232;48.094;11.288;2023-02-15T09:17:11;17.53;;;12.33;;
12332;SDS011;6232;48.094;11.288;2023-02-15T09:19:56;17.40;;;13.43;;
12332;SDS011;6232;48.094;11.288;2023-02-15T09:22:42;19.77;;;12.53;;
12332;SDS011;6232;48.094;11.288;2023-02-15T09:25:28;24.87;;;13.07;;
12332;SDS011;6232;48.094;11.288;2023-02-15T09:28:13;18.93;;;12.77;;
12332;SDS011;6232;48.094;11.288;2023-02-15T09:31:06;23.10;;;14.60;;
12332;SDS011;6232;48.094;11.288;2023-02-15T09:33:52;25.27;;;13.37;;
12332;SDS011;6232;48.094;11.288;2023-02-15T09:36:38;23.37;;;13.30;;
12332;SDS011;6232;48.094;11.288;2023-02-15T09:39:24;18.77;;;12.67;;
12332;SDS011;6232;48.094;11.288;2023-02-15T09:45:04;22.83;;;13.00;;
12332;SDS011;6232;48.094;11.288;2023-02-15T09:50:44;19.13;;;12.00;;
12332;SDS011;6232;48.094;11.288;2023-02-15T09:53:47;19.90;;;13.10;;
12332;SDS011;6232;48.094;11.288;2023-02-15T10:05:37;20.63;;;11.93;;
12332;SDS011;6232;48.094;11.288;2023-02-15T10:08:45;19.40;;;12.67;;
12332;SDS011;6232;48.094;11.288;2023-02-15T10:17:24;16.47;;;11.70;;
12332;SDS011;6232;48.094;11.288;2023-02-15T10:26:16;14.23;;;10.90;;
12332;SDS011;6232;48.094;11.288;2023-02-15T10:29:05;19.23;;;11.43;;
12332;SDS011;6232;48.094;11.288;2023-02-15T10:32:05;19.13;;;13.50;;
12332;SDS011;6232;48.094;11.288;2023-02-15T10:35:00;15.73;;;11.00;;
12332;SDS011;6232;48.094;11.288;2023-02-15T10:41:15;18.07;;;11.47;;
12332;SDS011;6232;48.094;11.288;2023-02-15T10:46:43;24.03;;;14.60;;
12332;SDS011;6232;48.094;11.288;2023-02-15T10:58:56;17.17;;;11.77;;
12332;SDS011;6232;48.094;11.288;2023-02-15T11:04:39;18.30;;;12.10;;
12332;SDS011;6232;48.094;11.288;2023-02-15T11:07:27;18.13;;;12.30;;
12332;SDS011;6232;48.094;11.288;2023-02-15T11:13:10;16.20;;;11.83;;
12332;SDS011;6232;48.094;11.288;2023-02-15T11:15:58;17.10;;;10.80;;
12332;SDS011;6232;48.094;11.288;2023-02-15T11:18:51;13.30;;;10.60;;
12332;SDS011;6232;48.094;11.288;2023-02-15T11:21:40;18.10;;;11.00;;
12332;SDS011;6232;48.094;11.288;2023-02-15T11:24:28;13.67;;;11.00;;
12332;SDS011;6232;48.094;11.288;2023-02-15T11:27:17;14.30;;;10.53;;
12332;SDS011;6232;48.094;11.288;2023-02-15T11:30:05;14.70;;;10.90;;
12332;SDS011;6232;48.094;11.288;2023-02-15T11:32:58;16.80;;;10.03;;
12332;SDS011;6232;48.094;11.288;2023-02-15T11:35:49;16.70;;;10.47;;
12332;SDS011;6232;48.094;11.288;2023-02-15T11:38:36;12.60;;;10.43;;
12332;SDS011;6232;48.094;11.288;2023-02-15T11:41:22;10.23;;;9.23;;
12332;SDS011;6232;48.094;11.288;2023-02-15T11:44:14;11.73;;;9.63;;
12332;SDS011;6232;48.094;11.288;2023-02-15T11:47:01;10.20;;;9.20;;
12332;SDS011;6232;48.094;11.288;2023-02-15T11:49:52;11.30;;;10.17;;
12332;SDS011;6232;48.094;11.288;2023-02-15T11:52:38;11.40;;;10.03;;
12332;SDS011;6232;48.094;11.288;2023-02-15T11:55:23;14.40;;;10.03;;
12332;SDS011;6232;48.094;11.288;2023-02-15T11:58:28;13.47;;;9.67;;
12332;SDS011;6232;48.094;11.288;2023-02-15T12:02:00;11.70;;;9.27;;
12332;SDS011;6232;48.094;11.288;2023-02-15T12:04:21;23.20;;;9.20;;
12332;SDS011;6232;48.094;11.288;2023-02-15T12:07:13;12.13;;;9.10;;
12332;SDS011;6232;48.094;11.288;2023-02-15T12:10:03;12.70;;;9.33;;
12332;SDS011;6232;48.094;11.288;2023-02-15T12:13:30;9.63;;;8.63;;
12332;SDS011;6232;48.094;11.288;2023-02-15T12:16:09;10.83;;;8.97;;
12332;SDS011;6232;48.094;11.288;2023-02-15T12:18:57;14.23;;;9.37;;
12332;SDS011;6232;48.094;11.288;2023-02-15T12:21:43;13.63;;;10.03;;
12332;SDS011;6232;48.094;11.288;2023-02-15T12:24:34;11.33;;;9.60;;
12332;SDS011;6232;48.094;11.288;2023-02-15T12:27:29;11.60;;;10.03;;
12332;SDS011;6232;48.094;11.288;2023-02-15T12:30:20;12.47;;;8.97;;
12332;SDS011;6232;48.094;11.288;2023-02-15T12:33:26;12.63;;;10.10;;
12332;SDS011;6232;48.094;11.288;2023-02-15T12:36:24;15.70;;;10.23;;
12332;SDS011;6232;48.094;11.288;2023-02-15T12:42:00;11.10;;;10.00;;
12332;SDS011;6232;48.094;11.288;2023-02-15T12:44:52;10.93;;;9.83;;
12332;SDS011;6232;48.094;11.288;2023-02-15T12:47:38;13.17;;;10.00;;
12332;SDS011;6232;48.094;11.288;2023-02-15T12:50:24;12.37;;;9.87;;
12332;SDS011;6232;48.094;11.288;2023-02-15T12:53:14;19.63;;;11.10;;
12332;SDS011;6232;48.094;11.288;2023-02-15T12:56:00;15.07;;;12.20;;
12332;SDS011;6232;48.094;11.288;2023-02-15T12:58:46;16.40;;;12.00;;
12332;SDS011;6232;48.094;11.288;2023-02-15T13:01:32;16.07;;;10.43;;
12332;SDS011;6232;48.094;11.288;2023-02-15T13:04:22;15.30;;;11.17;;
12332;SDS011;6232;48.094;11.288;2023-02-15T13:07:09;14.00;;;10.17;;
12332;SDS011;6232;48.094;11.288;2023-02-15T13:09:55;12.17;;;10.63;;
12332;SDS011;6232;48.094;11.288;2023-02-15T13:12:41;16.43;;;11.70;;
12332;SDS011;6232;48.094;11.288;2023-02-15T13:15:41;11.53;;;10.33;;
12332;SDS011;6232;48.094;11.288;2023-02-15T13:18:35;13.33;;;11.40;;
12332;SDS011;6232;48.094;11.288;2023-02-15T13:21:23;12.30;;;11.00;;
12332;SDS011;6232;48.094;11.288;2023-02-15T13:24:22;11.20;;;10.10;;
12332;SDS011;6232;48.094;11.288;2023-02-15T13:27:14;11.30;;;10.07;;
12332;SDS011;6232;48.094;11.288;2023-02-15T13:30:02;14.53;;;10.47;;
12332;SDS011;6232;48.094;11.288;2023-02-15T13:32:49;12.07;;;10.87;;
12332;SDS011;6232;48.094;11.288;2023-02-15T13:35:38;12.40;;;11.10;;
12332;SDS011;6232;48.094;11.288;2023-02-15T13:38:38;11.87;;;10.63;;
12332;SDS011;6232;48.094;11.288;2023-02-15T13:41:27;12.80;;;11.50;;
12332;SDS011;6232;48.094;11.288;2023-02-15T13:44:24;13.80;;;12.27;;
12332;SDS011;6232;48.094;11.288;2023-02-15T13:50:06;17.00;;;11.67;;
12332;SDS011;6232;48.094;11.288;2023-02-15T13:55:55;13.67;;;11.60;;
12332;SDS011;6232;48.094;11.288;2023-02-15T14:01:39;16.27;;;11.90;;
12332;SDS011;6232;48.094;11.288;2023-02-15T14:07:33;12.50;;;11.30;;
12332;SDS011;6232;48.094;11.288;2023-02-15T14:13:29;17.80;;;12.90;;
12332;SDS011;6232;48.094;11.288;2023-02-15T14:16:23;12.23;;;11.03;;
12332;SDS011;6232;48.094;11.288;2023-02-15T14:19:24;14.30;;;11.97;;
12332;SDS011;6232;48.094;11.288;2023-02-15T14:31:37;13.27;;;11.87;;
12332;SDS011;6232;48.094;11.288;2023-02-15T14:34:27;15.57;;;13.20;;
12332;SDS011;6232;48.094;11.288;2023-02-15T14:37:16;18.40;;;13.67;;
12332;SDS011;6232;48.094;11.288;2023-02-15T14:40:16;16.60;;;13.90;;
12332;SDS011;6232;48.094;11.288;2023-02-15T14:43:26;17.77;;;14.60;;
12332;SDS011;6232;48.094;11.288;2023-02-15T14:46:18;17.53;;;13.73;;
12332;SDS011;6232;48.094;11.288;2023-02-15T14:49:09;17.10;;;14.83;;
12332;SDS011;6232;48.094;11.288;2023-02-15T14:51:58;16.10;;;14.50;;
12332;SDS011;6232;48.094;11.288;2023-02-15T14:57:30;17.30;;;15.50;;
12332;SDS011;6232;48.094;11.288;2023-02-15T15:00:50;17.97;;;16.07;;
12332;SDS011;6232;48.094;11.288;2023-02-15T15:03:29;21.67;;;15.90;;
12332;SDS011;6232;48.094;11.288;2023-02-15T15:06:31;16.37;;;14.63;;
12332;SDS011;6232;48.094;11.288;2023-02-15T15:09:25;18.17;;;14.37;;
12332;SDS011;6232;48.094;11.288;2023-02-15T15:14:57;19.03;;;14.23;;
12332;SDS011;6232;48.094;11.288;2023-02-15T15:17:54;16.33;;;14.03;;
12332;SDS011;6232;48.094;11.288;2023-02-15T15:23:38;17.03;;;15.20;;
12332;SDS011;6232;48.094;11.288;2023-02-15T15:26:25;17.33;;;14.27;;
12332;SDS011;6232;48.094;11.288;2023-02-15T15:29:12;20.07;;;14.60;;
12332;SDS011;6232;48.094;11.288;2023-02-15T15:31:57;16.73;;;14.50;;
12332;SDS011;6232;48.094;11.288;2023-02-15T15:49:32;25.07;;;15.27;;
12332;SDS011;6232;48.094;11.288;2023-02-15T15:52:19;19.60;;;14.30;;
12332;SDS011;6232;48.094;11.288;2023-02-15T15:55:13;39.10;;;26.03;;
12332;SDS011;6232;48.094;11.288;2023-02-15T15:58:00;24.30;;;19.80;;
12332;SDS011;6232;48.094;11.288;2023-02-15T16:00:49;24.70;;;19.30;;
12332;SDS011;6232;48.094;11.288;2023-02-15T16:03:35;22.60;;;15.30;;
12332;SDS011;6232;48.094;11.288;2023-02-15T16:09:17;22.87;;;16.40;;
12332;SDS011;6232;48.094;11.288;2023-02-15T16:12:03;22.10;;;17.23;;
12332;SDS011;6232;48.094;11.288;2023-02-15T16:14:51;22.93;;;19.37;;
12332;SDS011;6232;48.094;11.288;2023-02-15T16:17:38;20.50;;;16.30;;
12332;SDS011;6232;48.094;11.288;2023-02-15T16:20:30;28.83;;;19.70;;
12332;SDS011;6232;48.094;11.288;2023-02-15T16:29:26;25.87;;;18.40;;
12332;SDS011;6232;48.094;11.288;2023-02-15T16:32:19;25.57;;;16.87;;
12332;SDS011;6232;48.094;11.288;2023-02-15T16:35:11;21.87;;;17.63;;
12332;SDS011;6232;48.094;11.288;2023-02-15T16:38:02;26.00;;;19.43;;
12332;SDS011;6232;48.094;11.288;2023-02-15T16:43:33;29.27;;;18.97;;
12332;SDS011;6232;48.094;11.288;2023-02-15T16:46:39;26.40;;;18.07;;
12332;SDS011;6232;48.094;11.288;2023-02-15T16:49:28;28.60;;;18.60;;
12332;SDS011;6232;48.094;11.288;2023-02-15T16:52:24;33.90;;;18.90;;
12332;SDS011;6232;48.094;11.288;2023-02-15T16:55:18;29.47;;;18.53;;
12332;SDS011;6232;48.094;11.288;2023-02-15T16:58:04;34.77;;;19.63;;
12332;SDS011;6232;48.094;11.288;2023-02-15T17:00:52;30.90;;;18.07;;
12332;SDS011;6232;48.094;11.288;2023-02-15T17:03:42;27.23;;;19.27;;
12332;SDS011;6232;48.094;11.288;2023-02-15T17:06:28;29.23;;;20.00;;
12332;SDS011;6232;48.094;11.288;2023-02-15T17:09:15;30.63;;;18.13;;
12332;SDS011;6232;48.094;11.288;2023-02-15T17:12:03;25.60;;;18.10;;
12332;SDS011;6232;48.094;11.288;2023-02-15T17:14:50;30.77;;;18.70;;
12332;SDS011;6232;48.094;11.288;2023-02-15T17:17:39;31.13;;;18.53;;
12332;SDS011;6232;48.094;11.288;2023-02-15T17:20:26;30.30;;;19.20;;
12332;SDS011;6232;48.094;11.288;2023-02-15T17:23:32;26.10;;;17.43;;
12332;SDS011;6232;48.094;11.288;2023-02-15T17:26:22;31.90;;;18.57;;
12332;SDS011;6232;48.094;11.288;2023-02-15T17:29:14;33.67;;;19.97;;
12332;SDS011;6232;48.094;11.288;2023-02-15T17:32:03;28.10;;;19.33;;
12332;SDS011;6232;48.094;11.288;2023-02-15T17:34:57;30.13;;;18.57;;
12332;SDS011;6232;48.094;11.288;2023-02-15T17:37:47;32.20;;;19.87;;
12332;SDS011;6232;48.094;11.288;2023-02-15T17:40:34;27.77;;;18.20;;
12332;SDS011;6232;48.094;11.288;2023-02-15T17:43:20;27.60;;;18.60;;
12332;SDS011;6232;48.094;11.288;2023-02-15T17:46:05;32.23;;;20.03;;
12332;SDS011;6232;48.094;11.288;2023-02-15T17:48:51;27.20;;;18.60;;
12332;SDS011;6232;48.094;11.288;2023-02-15T17:51:37;30.13;;;19.40;;
12332;SDS011;6232;48.094;11.288;2023-02-15T17:54:25;37.10;;;21.33;;
12332;SDS011;6232;48.094;11.288;2023-02-15T17:57:30;32.33;;;20.97;;
12332;SDS011;6232;48.094;11.288;2023-02-15T18:00:15;31.27;;;21.53;;
12332;SDS011;6232;48.094;11.288;2023-02-15T18:03:20;36.80;;;22.67;;
12332;SDS011;6232;48.094;11.288;2023-02-15T18:06:24;36.47;;;22.90;;
12332;SDS011;6232;48.094;11.288;2023-02-15T18:09:28;31.07;;;19.20;;
12332;SDS011;6232;48.094;11.288;2023-02-15T18:12:34;39.30;;;24.87;;
12332;SDS011;6232;48.094;11.288;2023-02-15T18:15:21;39.50;;;25.53;;
12332;SDS011;6232;48.094;11.288;2023-02-15T18:18:08;36.87;;;20.77;;
12332;SDS011;6232;48.094;11.288;2023-02-15T18:20:56;38.30;;;23.83;;
12332;SDS011;6232;48.094;11.288;2023-02-15T18:23:42;42.23;;;25.10;;
12332;SDS011;6232;48.094;11.288;2023-02-15T18:26:27;51.03;;;28.00;;
12332;SDS011;6232;48.094;11.288;2023-02-15T18:29:13;50.13;;;28.80;;
12332;SDS011;6232;48.094;11.288;2023-02-15T18:31:59;46.43;;;30.40;;
12332;SDS011;6232;48.094;11.288;2023-02-15T18:34:45;46.10;;;26.80;;
12332;SDS011;6232;48.094;11.288;2023-02-15T18:37:31;44.17;;;27.03;;
12332;SDS011;6232;48.094;11.288;2023-02-15T18:40:19;43.00;;;25.57;;
12332;SDS011;6232;48.094;11.288;2023-02-15T18:43:07;46.17;;;28.60;;
12332;SDS011;6232;48.094;11.288;2023-02-15T18:45:53;46.87;;;26.30;;
12332;SDS011;6232;48.094;11.288;2023-02-15T18:48:38;42.67;;;27.73;;
12332;SDS011;6232;48.094;11.288;2023-02-15T18:51:24;45.73;;;28.80;;
12332;SDS011;6232;48.094;11.288;2023-02-15T18:54:20;52.13;;;30.70;;